sensor_id;sensor_type;location;lat;lon;timestamp;P1;durP1;ratioP1;P2;durP2;ratioP2
47455;SDS011;33202;48.512;-2.780;2024-01-30T00:01:22;3.22;;;0.30;;
47455;SDS011;33202;48.512;-2.780;2024-01-30T00:03:48;2.22;;;0.38;;
47455;SDS011;33202;48.512;-2.780;2024-01-30T00:06:18;0.90;;;0.38;;
47455;SDS011;33202;48.512;-2.780;2024-01-30T00:08:44;1.75;;;0.30;;
47455;SDS011;33202;48.512;-2.780;2024-01-30T00:13:37;1.38;;;0.50;;
47455;SDS011;33202;48.512;-2.780;2024-01-30T00:16:03;2.60;;;0.70;;
47455;SDS011;33202;48.512;-2.780;2024-01-30T00:18:29;1.45;;;0.63;;
47455;SDS011;33202;48.512;-2.780;2024-01-30T00:20:55;1.67;;;0.63;;
47455;SDS011;33202;48.512;-2.780;2024-01-30T00:23:21;2.83;;;0.60;;
47455;SDS011;33202;48.512;-2.780;2024-01-30T00:25:47;3.53;;;1.00;;
47455;SDS011;33202;48.512;-2.780;2024-01-30T00:28:13;2.42;;;1.40;;
47455;SDS011;33202;48.512;-2.780;2024-01-30T00:30:39;2.83;;;1.55;;
47455;SDS011;33202;48.512;-2.780;2024-01-30T00:33:05;2.75;;;1.30;;
47455;SDS011;33202;48.512;-2.780;2024-01-30T00:35:31;2.28;;;1.10;;
47455;SDS011;33202;48.512;-2.780;2024-01-30T00:37:57;3.20;;;1.00;;
47455;SDS011;33202;48.512;-2.780;2024-01-30T00:40:23;2.00;;;0.85;;
47455;SDS011;33202;48.512;-2.780;2024-01-30T00:42:49;1.92;;;0.95;;
47455;SDS011;33202;48.512;-2.780;2024-01-30T00:45:15;1.40;;;0.90;;
47455;SDS011;33202;48.512;-2.780;2024-01-30T00:47:42;2.20;;;0.83;;
47455;SDS011;33202;48.512;-2.780;2024-01-30T00:50:08;1.00;;;0.57;;
47455;SDS011;33202;48.512;-2.780;2024-01-30T00:52:34;1.80;;;0.60;;
47455;SDS011;33202;48.512;-2.780;2024-01-30T00:55:00;0.77;;;0.47;;
47455;SDS011;33202;48.512;-2.780;2024-01-30T00:57:27;1.20;;;0.80;;
47455;SDS011;33202;48.512;-2.780;2024-01-30T00:59:53;1.58;;;0.60;;
47455;SDS011;33202;48.512;-2.780;2024-01-30T01:02:19;0.98;;;0.32;;
47455;SDS011;33202;48.512;-2.780;2024-01-30T01:04:45;0.68;;;0.38;;
47455;SDS011;33202;48.512;-2.780;2024-01-30T01:07:12;0.57;;;0.40;;
47455;SDS011;33202;48.512;-2.780;2024-01-30T01:09:38;1.33;;;0.45;;
47455;SDS011;33202;48.512;-2.780;2024-01-30T01:12:04;0.93;;;0.50;;
47455;SDS011;33202;48.512;-2.780;2024-01-30T01:14:30;2.05;;;0.77;;
47455;SDS011;33202;48.512;-2.780;2024-01-30T01:16:56;1.38;;;0.47;;
47455;SDS011;33202;48.512;-2.780;2024-01-30T01:19:22;1.85;;;0.38;;
47455;SDS011;33202;48.512;-2.780;2024-01-30T01:21:48;2.58;;;0.73;;
47455;SDS011;33202;48.512;-2.780;2024-01-30T01:24:14;1.88;;;0.55;;
47455;SDS011;33202;48.512;-2.780;2024-01-30T01:26:40;0.80;;;0.50;;
47455;SDS011;33202;48.512;-2.780;2024-01-30T01:29:06;0.40;;;0.30;;
47455;SDS011;33202;48.512;-2.780;2024-01-30T01:31:37;0.60;;;0.28;;
47455;SDS011;33202;48.512;-2.780;2024-01-30T01:34:12;1.38;;;0.30;;
47455;SDS011;33202;48.512;-2.780;2024-01-30T01:36:39;0.70;;;0.32;;
47455;SDS011;33202;48.512;-2.780;2024-01-30T01:39:05;0.37;;;0.20;;
47455;SDS011;33202;48.512;-2.780;2024-01-30T01:41:33;1.05;;;0.40;;
47455;SDS011;33202;48.512;-2.780;2024-01-30T01:43:59;0.93;;;0.50;;
47455;SDS011;33202;48.512;-2.780;2024-01-30T01:46:26;1.13;;;0.55;;
47455;SDS011;33202;48.512;-2.780;2024-01-30T01:48:53;0.60;;;0.38;;
47455;SDS011;33202;48.512;-2.780;2024-01-30T01:51:19;0.60;;;0.40;;
47455;SDS011;33202;48.512;-2.780;2024-01-30T01:53:45;0.80;;;0.30;;
47455;SDS011;33202;48.512;-2.780;2024-01-30T01:56:11;1.83;;;0.20;;
47455;SDS011;33202;48.512;-2.780;2024-01-30T01:58:37;1.67;;;0.40;;
47455;SDS011;33202;48.512;-2.780;2024-01-30T02:01:03;0.80;;;0.40;;
47455;SDS011;33202;48.512;-2.780;2024-01-30T02:03:30;5.00;;;0.57;;
47455;SDS011;33202;48.512;-2.780;2024-01-30T02:05:56;0.70;;;0.30;;
47455;SDS011;33202;48.512;-2.780;2024-01-30T02:08:23;2.17;;;0.50;;
47455;SDS011;33202;48.512;-2.780;2024-01-30T02:10:49;0.95;;;0.20;;
47455;SDS011;33202;48.512;-2.780;2024-01-30T02:13:15;0.88;;;0.40;;
47455;SDS011;33202;48.512;-2.780;2024-01-30T02:15:41;0.43;;;0.35;;
47455;SDS011;33202;48.512;-2.780;2024-01-30T02:18:07;0.88;;;0.40;;
47455;SDS011;33202;48.512;-2.780;2024-01-30T02:20:34;0.38;;;0.20;;
47455;SDS011;33202;48.512;-2.780;2024-01-30T02:23:01;0.40;;;0.30;;
47455;SDS011;33202;48.512;-2.780;2024-01-30T02:25:31;0.57;;;0.30;;
47455;SDS011;33202;48.512;-2.780;2024-01-30T02:27:57;0.50;;;0.30;;
47455;SDS011;33202;48.512;-2.780;2024-01-30T02:30:23;1.38;;;0.32;;
47455;SDS011;33202;48.512;-2.780;2024-01-30T02:32:49;1.25;;;0.30;;
47455;SDS011;33202;48.512;-2.780;2024-01-30T02:35:15;0.80;;;0.32;;
47455;SDS011;33202;48.512;-2.780;2024-01-30T02:37:41;0.73;;;0.40;;
47455;SDS011;33202;48.512;-2.780;2024-01-30T02:40:07;1.50;;;0.40;;
47455;SDS011;33202;48.512;-2.780;2024-01-30T02:42:33;1.85;;;0.30;;
47455;SDS011;33202;48.512;-2.780;2024-01-30T02:44:59;1.08;;;0.50;;
47455;SDS011;33202;48.512;-2.780;2024-01-30T02:47:25;1.25;;;0.38;;
47455;SDS011;33202;48.512;-2.780;2024-01-30T02:49:51;0.65;;;0.20;;
47455;SDS011;33202;48.512;-2.780;2024-01-30T02:52:17;0.90;;;0.40;;
47455;SDS011;33202;48.512;-2.780;2024-01-30T02:54:44;1.05;;;0.57;;
47455;SDS011;33202;48.512;-2.780;2024-01-30T02:57:10;0.82;;;0.35;;
47455;SDS011;33202;48.512;-2.780;2024-01-30T02:59:36;1.35;;;0.40;;
47455;SDS011;33202;48.512;-2.780;2024-01-30T03:02:02;1.10;;;0.30;;
47455;SDS011;33202;48.512;-2.780;2024-01-30T03:04:28;0.90;;;0.40;;
47455;SDS011;33202;48.512;-2.780;2024-01-30T03:06:55;1.10;;;0.30;;
47455;SDS011;33202;48.512;-2.780;2024-01-30T03:09:21;1.30;;;0.40;;
47455;SDS011;33202;48.512;-2.780;2024-01-30T03:11:47;0.80;;;0.50;;
47455;SDS011;33202;48.512;-2.780;2024-01-30T03:14:13;0.90;;;0.35;;
47455;SDS011;33202;48.512;-2.780;2024-01-30T03:16:39;1.23;;;0.60;;
47455;SDS011;33202;48.512;-2.780;2024-01-30T03:19:08;1.17;;;0.38;;
47455;SDS011;33202;48.512;-2.780;2024-01-30T03:21:34;1.30;;;0.50;;
47455;SDS011;33202;48.512;-2.780;2024-01-30T03:24:00;1.30;;;0.40;;
47455;SDS011;33202;48.512;-2.780;2024-01-30T03:26:26;0.70;;;0.40;;
47455;SDS011;33202;48.512;-2.780;2024-01-30T03:28:52;1.70;;;0.47;;
47455;SDS011;33202;48.512;-2.780;2024-01-30T03:31:18;0.82;;;0.30;;
47455;SDS011;33202;48.512;-2.780;2024-01-30T03:33:44;0.63;;;0.40;;
47455;SDS011;33202;48.512;-2.780;2024-01-30T03:36:10;0.90;;;0.38;;
47455;SDS011;33202;48.512;-2.780;2024-01-30T03:38:36;1.80;;;0.40;;
47455;SDS011;33202;48.512;-2.780;2024-01-30T03:41:02;2.05;;;0.35;;
47455;SDS011;33202;48.512;-2.780;2024-01-30T03:43:28;1.52;;;0.30;;
47455;SDS011;33202;48.512;-2.780;2024-01-30T03:45:54;1.10;;;0.30;;
47455;SDS011;33202;48.512;-2.780;2024-01-30T03:48:20;2.40;;;0.40;;
47455;SDS011;33202;48.512;-2.780;2024-01-30T03:50:46;0.85;;;0.40;;
47455;SDS011;33202;48.512;-2.780;2024-01-30T03:53:12;2.33;;;0.40;;
47455;SDS011;33202;48.512;-2.780;2024-01-30T03:55:38;1.52;;;0.40;;
47455;SDS011;33202;48.512;-2.780;2024-01-30T03:58:04;1.83;;;0.60;;
47455;SDS011;33202;48.512;-2.780;2024-01-30T04:00:31;1.45;;;0.70;;
47455;SDS011;33202;48.512;-2.780;2024-01-30T04:02:57;1.45;;;0.60;;
47455;SDS011;33202;48.512;-2.780;2024-01-30T04:05:22;1.23;;;0.60;;
47455;SDS011;33202;48.512;-2.780;2024-01-30T04:07:48;0.50;;;0.40;;
47455;SDS011;33202;48.512;-2.780;2024-01-30T04:10:14;1.85;;;0.80;;
47455;SDS011;33202;48.512;-2.780;2024-01-30T04:12:40;1.95;;;0.68;;
47455;SDS011;33202;48.512;-2.780;2024-01-30T04:15:07;1.45;;;0.50;;
47455;SDS011;33202;48.512;-2.780;2024-01-30T04:17:33;1.10;;;0.60;;
47455;SDS011;33202;48.512;-2.780;2024-01-30T04:20:00;1.05;;;0.50;;
47455;SDS011;33202;48.512;-2.780;2024-01-30T04:22:26;1.27;;;0.60;;
47455;SDS011;33202;48.512;-2.780;2024-01-30T04:24:52;1.73;;;0.70;;
47455;SDS011;33202;48.512;-2.780;2024-01-30T04:27:18;1.58;;;0.70;;
47455;SDS011;33202;48.512;-2.780;2024-01-30T04:29:44;1.20;;;0.60;;
47455;SDS011;33202;48.512;-2.780;2024-01-30T04:32:10;3.10;;;0.65;;
47455;SDS011;33202;48.512;-2.780;2024-01-30T04:34:36;1.65;;;0.75;;
47455;SDS011;33202;48.512;-2.780;2024-01-30T04:37:02;1.08;;;0.50;;
47455;SDS011;33202;48.512;-2.780;2024-01-30T04:39:28;1.02;;;0.65;;
47455;SDS011;33202;48.512;-2.780;2024-01-30T04:41:54;1.17;;;0.80;;
47455;SDS011;33202;48.512;-2.780;2024-01-30T04:44:20;1.83;;;0.73;;
47455;SDS011;33202;48.512;-2.780;2024-01-30T04:46:46;2.45;;;0.73;;
47455;SDS011;33202;48.512;-2.780;2024-01-30T04:49:12;1.17;;;0.60;;
47455;SDS011;33202;48.512;-2.780;2024-01-30T04:51:38;1.40;;;0.70;;
47455;SDS011;33202;48.512;-2.780;2024-01-30T04:54:04;1.80;;;0.73;;
47455;SDS011;33202;48.512;-2.780;2024-01-30T04:56:30;2.28;;;0.75;;
47455;SDS011;33202;48.512;-2.780;2024-01-30T04:58:56;1.77;;;0.70;;
47455;SDS011;33202;48.512;-2.780;2024-01-30T05:01:22;0.90;;;0.60;;
47455;SDS011;33202;48.512;-2.780;2024-01-30T05:03:48;1.63;;;0.80;;
47455;SDS011;33202;48.512;-2.780;2024-01-30T05:06:23;2.47;;;1.00;;
47455;SDS011;33202;48.512;-2.780;2024-01-30T05:08:49;1.63;;;0.80;;
47455;SDS011;33202;48.512;-2.780;2024-01-30T05:11:15;1.83;;;0.80;;
47455;SDS011;33202;48.512;-2.780;2024-01-30T05:13:41;2.42;;;0.80;;
47455;SDS011;33202;48.512;-2.780;2024-01-30T05:16:07;3.28;;;0.77;;
47455;SDS011;33202;48.512;-2.780;2024-01-30T05:18:33;4.32;;;1.05;;
47455;SDS011;33202;48.512;-2.780;2024-01-30T05:20:59;2.92;;;1.02;;
47455;SDS011;33202;48.512;-2.780;2024-01-30T05:23:25;4.03;;;1.02;;
47455;SDS011;33202;48.512;-2.780;2024-01-30T05:25:51;2.35;;;0.88;;
47455;SDS011;33202;48.512;-2.780;2024-01-30T05:28:17;2.50;;;0.90;;
47455;SDS011;33202;48.512;-2.780;2024-01-30T05:30:43;4.05;;;0.82;;
47455;SDS011;33202;48.512;-2.780;2024-01-30T05:33:09;2.08;;;1.00;;
47455;SDS011;33202;48.512;-2.780;2024-01-30T05:38:03;5.22;;;1.30;;
47455;SDS011;33202;48.512;-2.780;2024-01-30T05:40:29;3.15;;;1.08;;
47455;SDS011;33202;48.512;-2.780;2024-01-30T05:42:55;1.48;;;0.82;;
47455;SDS011;33202;48.512;-2.780;2024-01-30T05:45:23;4.20;;;2.47;;
47455;SDS011;33202;48.512;-2.780;2024-01-30T05:47:49;3.97;;;1.88;;
47455;SDS011;33202;48.512;-2.780;2024-01-30T05:50:15;7.78;;;3.35;;
47455;SDS011;33202;48.512;-2.780;2024-01-30T05:52:41;28.02;;;18.00;;
47455;SDS011;33202;48.512;-2.780;2024-01-30T05:55:07;28.73;;;16.95;;
47455;SDS011;33202;48.512;-2.780;2024-01-30T05:57:33;14.57;;;9.93;;
47455;SDS011;33202;48.512;-2.780;2024-01-30T05:59:59;10.45;;;5.88;;
47455;SDS011;33202;48.512;-2.780;2024-01-30T06:02:25;7.50;;;4.18;;
47455;SDS011;33202;48.512;-2.780;2024-01-30T06:04:51;8.35;;;4.22;;
47455;SDS011;33202;48.512;-2.780;2024-01-30T06:07:17;22.38;;;11.00;;
47455;SDS011;33202;48.512;-2.780;2024-01-30T06:09:43;48.72;;;25.63;;
47455;SDS011;33202;48.512;-2.780;2024-01-30T06:12:10;54.88;;;28.58;;
47455;SDS011;33202;48.512;-2.780;2024-01-30T06:14:37;47.27;;;24.60;;
47455;SDS011;33202;48.512;-2.780;2024-01-30T06:17:03;38.90;;;21.88;;
47455;SDS011;33202;48.512;-2.780;2024-01-30T06:19:30;27.45;;;15.93;;
47455;SDS011;33202;48.512;-2.780;2024-01-30T06:21:56;20.30;;;12.18;;
47455;SDS011;33202;48.512;-2.780;2024-01-30T06:24:22;20.50;;;12.70;;
47455;SDS011;33202;48.512;-2.780;2024-01-30T06:26:48;19.40;;;12.23;;
47455;SDS011;33202;48.512;-2.780;2024-01-30T06:29:14;22.05;;;14.65;;
47455;SDS011;33202;48.512;-2.780;2024-01-30T06:31:41;27.13;;;16.60;;
47455;SDS011;33202;48.512;-2.780;2024-01-30T06:34:08;49.15;;;24.40;;
47455;SDS011;33202;48.512;-2.780;2024-01-30T06:36:34;69.03;;;31.42;;
47455;SDS011;33202;48.512;-2.780;2024-01-30T06:39:01;45.33;;;20.65;;
47455;SDS011;33202;48.512;-2.780;2024-01-30T06:41:27;32.37;;;14.07;;
47455;SDS011;33202;48.512;-2.780;2024-01-30T06:43:53;31.48;;;14.45;;
47455;SDS011;33202;48.512;-2.780;2024-01-30T06:46:19;21.88;;;11.32;;
47455;SDS011;33202;48.512;-2.780;2024-01-30T06:48:45;15.52;;;7.28;;
47455;SDS011;33202;48.512;-2.780;2024-01-30T06:51:11;10.32;;;4.70;;
47455;SDS011;33202;48.512;-2.780;2024-01-30T06:53:37;14.23;;;7.63;;
47455;SDS011;33202;48.512;-2.780;2024-01-30T06:56:03;16.45;;;7.60;;
47455;SDS011;33202;48.512;-2.780;2024-01-30T06:58:29;51.50;;;23.55;;
47455;SDS011;33202;48.512;-2.780;2024-01-30T07:00:55;133.68;;;55.13;;
47455;SDS011;33202;48.512;-2.780;2024-01-30T07:03:22;130.27;;;54.47;;
47455;SDS011;33202;48.512;-2.780;2024-01-30T07:05:48;134.38;;;58.10;;
47455;SDS011;33202;48.512;-2.780;2024-01-30T07:08:15;124.55;;;53.03;;
47455;SDS011;33202;48.512;-2.780;2024-01-30T07:10:42;87.13;;;38.63;;
47455;SDS011;33202;48.512;-2.780;2024-01-30T07:13:08;50.10;;;23.95;;
47455;SDS011;33202;48.512;-2.780;2024-01-30T07:15:35;39.55;;;18.63;;
47455;SDS011;33202;48.512;-2.780;2024-01-30T07:18:02;23.60;;;11.60;;
47455;SDS011;33202;48.512;-2.780;2024-01-30T07:20:28;31.58;;;17.48;;
47455;SDS011;33202;48.512;-2.780;2024-01-30T07:22:56;29.33;;;15.65;;
47455;SDS011;33202;48.512;-2.780;2024-01-30T07:25:22;25.50;;;14.57;;
47455;SDS011;33202;48.512;-2.780;2024-01-30T07:27:51;20.15;;;11.18;;
47455;SDS011;33202;48.512;-2.780;2024-01-30T07:30:17;12.32;;;6.93;;
47455;SDS011;33202;48.512;-2.780;2024-01-30T07:32:43;8.98;;;5.03;;
47455;SDS011;33202;48.512;-2.780;2024-01-30T07:35:09;10.90;;;5.47;;
47455;SDS011;33202;48.512;-2.780;2024-01-30T07:37:37;15.75;;;8.52;;
47455;SDS011;33202;48.512;-2.780;2024-01-30T07:40:03;21.38;;;11.18;;
47455;SDS011;33202;48.512;-2.780;2024-01-30T07:42:29;29.88;;;15.43;;
47455;SDS011;33202;48.512;-2.780;2024-01-30T07:44:55;22.40;;;11.48;;
47455;SDS011;33202;48.512;-2.780;2024-01-30T07:47:21;17.05;;;8.05;;
47455;SDS011;33202;48.512;-2.780;2024-01-30T07:49:47;13.80;;;6.53;;
47455;SDS011;33202;48.512;-2.780;2024-01-30T07:52:13;10.82;;;5.32;;
47455;SDS011;33202;48.512;-2.780;2024-01-30T07:54:42;5.63;;;3.17;;
47455;SDS011;33202;48.512;-2.780;2024-01-30T07:57:15;6.13;;;2.88;;
47455;SDS011;33202;48.512;-2.780;2024-01-30T07:59:42;5.47;;;3.30;;
47455;SDS011;33202;48.512;-2.780;2024-01-30T08:02:09;4.30;;;2.60;;
47455;SDS011;33202;48.512;-2.780;2024-01-30T08:04:35;4.53;;;2.72;;
47455;SDS011;33202;48.512;-2.780;2024-01-30T08:07:01;3.53;;;2.40;;
47455;SDS011;33202;48.512;-2.780;2024-01-30T08:09:27;5.32;;;2.53;;
47455;SDS011;33202;48.512;-2.780;2024-01-30T08:11:53;3.22;;;2.20;;
47455;SDS011;33202;48.512;-2.780;2024-01-30T08:14:19;3.45;;;1.90;;
47455;SDS011;33202;48.512;-2.780;2024-01-30T08:16:45;4.35;;;2.03;;
47455;SDS011;33202;48.512;-2.780;2024-01-30T08:19:11;4.13;;;2.05;;
47455;SDS011;33202;48.512;-2.780;2024-01-30T08:21:37;4.28;;;2.30;;
47455;SDS011;33202;48.512;-2.780;2024-01-30T08:24:03;3.25;;;1.95;;
47455;SDS011;33202;48.512;-2.780;2024-01-30T08:26:30;2.78;;;1.70;;
47455;SDS011;33202;48.512;-2.780;2024-01-30T08:28:56;4.15;;;2.28;;
47455;SDS011;33202;48.512;-2.780;2024-01-30T08:31:22;4.10;;;2.17;;
47455;SDS011;33202;48.512;-2.780;2024-01-30T08:33:48;3.83;;;2.05;;
47455;SDS011;33202;48.512;-2.780;2024-01-30T08:36:15;3.72;;;1.85;;
47455;SDS011;33202;48.512;-2.780;2024-01-30T08:38:41;4.18;;;1.98;;
47455;SDS011;33202;48.512;-2.780;2024-01-30T08:41:07;9.00;;;3.17;;
47455;SDS011;33202;48.512;-2.780;2024-01-30T08:43:33;7.13;;;2.60;;
47455;SDS011;33202;48.512;-2.780;2024-01-30T08:46:00;6.53;;;2.35;;
47455;SDS011;33202;48.512;-2.780;2024-01-30T08:48:26;6.75;;;3.33;;
47455;SDS011;33202;48.512;-2.780;2024-01-30T08:50:52;6.65;;;3.58;;
47455;SDS011;33202;48.512;-2.780;2024-01-30T08:53:18;7.60;;;3.75;;
47455;SDS011;33202;48.512;-2.780;2024-01-30T08:55:44;4.85;;;2.97;;
47455;SDS011;33202;48.512;-2.780;2024-01-30T08:58:10;4.20;;;2.53;;
47455;SDS011;33202;48.512;-2.780;2024-01-30T09:00:36;4.22;;;2.30;;
47455;SDS011;33202;48.512;-2.780;2024-01-30T09:03:03;6.15;;;2.30;;
47455;SDS011;33202;48.512;-2.780;2024-01-30T09:05:29;7.38;;;2.20;;
47455;SDS011;33202;48.512;-2.780;2024-01-30T09:07:55;12.23;;;2.70;;
47455;SDS011;33202;48.512;-2.780;2024-01-30T09:10:21;9.27;;;2.30;;
47455;SDS011;33202;48.512;-2.780;2024-01-30T09:12:47;5.18;;;2.47;;
47455;SDS011;33202;48.512;-2.780;2024-01-30T09:15:14;3.55;;;1.60;;
47455;SDS011;33202;48.512;-2.780;2024-01-30T09:17:40;5.10;;;1.50;;
47455;SDS011;33202;48.512;-2.780;2024-01-30T09:20:06;3.33;;;1.42;;
47455;SDS011;33202;48.512;-2.780;2024-01-30T09:22:34;3.40;;;1.50;;
47455;SDS011;33202;48.512;-2.780;2024-01-30T09:25:00;2.63;;;1.30;;
47455;SDS011;33202;48.512;-2.780;2024-01-30T09:27:26;4.43;;;1.40;;
47455;SDS011;33202;48.512;-2.780;2024-01-30T09:29:52;3.42;;;1.20;;
47455;SDS011;33202;48.512;-2.780;2024-01-30T09:32:18;2.55;;;1.33;;
47455;SDS011;33202;48.512;-2.780;2024-01-30T09:34:44;6.32;;;1.70;;
47455;SDS011;33202;48.512;-2.780;2024-01-30T09:37:10;4.20;;;1.45;;
47455;SDS011;33202;48.512;-2.780;2024-01-30T09:39:36;5.78;;;1.38;;
47455;SDS011;33202;48.512;-2.780;2024-01-30T09:44:29;3.30;;;1.73;;
47455;SDS011;33202;48.512;-2.780;2024-01-30T09:46:55;2.95;;;1.35;;
47455;SDS011;33202;48.512;-2.780;2024-01-30T09:49:28;6.97;;;1.73;;
47455;SDS011;33202;48.512;-2.780;2024-01-30T09:51:54;8.70;;;1.98;;
47455;SDS011;33202;48.512;-2.780;2024-01-30T09:54:20;3.17;;;1.50;;
47455;SDS011;33202;48.512;-2.780;2024-01-30T09:56:47;2.75;;;1.40;;
47455;SDS011;33202;48.512;-2.780;2024-01-30T09:59:13;3.80;;;1.97;;
47455;SDS011;33202;48.512;-2.780;2024-01-30T10:01:39;3.85;;;1.48;;
47455;SDS011;33202;48.512;-2.780;2024-01-30T10:04:05;4.45;;;1.40;;
47455;SDS011;33202;48.512;-2.780;2024-01-30T10:06:32;3.28;;;1.50;;
47455;SDS011;33202;48.512;-2.780;2024-01-30T10:08:59;3.57;;;1.30;;
47455;SDS011;33202;48.512;-2.780;2024-01-30T10:11:25;2.88;;;1.40;;
47455;SDS011;33202;48.512;-2.780;2024-01-30T10:13:51;2.63;;;1.35;;
47455;SDS011;33202;48.512;-2.780;2024-01-30T10:16:17;2.20;;;1.30;;
47455;SDS011;33202;48.512;-2.780;2024-01-30T10:18:43;3.30;;;1.30;;
47455;SDS011;33202;48.512;-2.780;2024-01-30T10:21:09;3.80;;;1.35;;
47455;SDS011;33202;48.512;-2.780;2024-01-30T10:23:36;2.58;;;1.40;;
47455;SDS011;33202;48.512;-2.780;2024-01-30T10:26:04;1.67;;;1.10;;
47455;SDS011;33202;48.512;-2.780;2024-01-30T10:28:30;3.20;;;1.10;;
47455;SDS011;33202;48.512;-2.780;2024-01-30T10:30:57;1.55;;;1.00;;
47455;SDS011;33202;48.512;-2.780;2024-01-30T10:33:24;2.83;;;0.95;;
47455;SDS011;33202;48.512;-2.780;2024-01-30T10:35:50;1.67;;;0.90;;
47455;SDS011;33202;48.512;-2.780;2024-01-30T10:38:16;2.83;;;1.05;;
47455;SDS011;33202;48.512;-2.780;2024-01-30T10:40:45;2.22;;;0.98;;
47455;SDS011;33202;48.512;-2.780;2024-01-30T10:43:13;3.55;;;1.00;;
47455;SDS011;33202;48.512;-2.780;2024-01-30T10:45:41;13.02;;;2.22;;
47455;SDS011;33202;48.512;-2.780;2024-01-30T10:48:09;2.35;;;0.98;;
47455;SDS011;33202;48.512;-2.780;2024-01-30T10:50:36;3.97;;;1.20;;
47455;SDS011;33202;48.512;-2.780;2024-01-30T10:53:02;2.25;;;0.90;;
47455;SDS011;33202;48.512;-2.780;2024-01-30T10:55:29;5.28;;;1.10;;
47455;SDS011;33202;48.512;-2.780;2024-01-30T10:57:55;3.53;;;0.90;;
47455;SDS011;33202;48.512;-2.780;2024-01-30T11:00:22;4.07;;;1.00;;
47455;SDS011;33202;48.512;-2.780;2024-01-30T11:02:49;2.90;;;1.20;;
47455;SDS011;33202;48.512;-2.780;2024-01-30T11:05:22;2.75;;;0.95;;
47455;SDS011;33202;48.512;-2.780;2024-01-30T11:07:50;7.50;;;2.53;;
47455;SDS011;33202;48.512;-2.780;2024-01-30T11:10:16;2.97;;;1.58;;
47455;SDS011;33202;48.512;-2.780;2024-01-30T11:12:43;2.13;;;0.93;;
47455;SDS011;33202;48.512;-2.780;2024-01-30T11:15:12;4.18;;;1.50;;
47455;SDS011;33202;48.512;-2.780;2024-01-30T11:20:04;4.72;;;0.98;;
47455;SDS011;33202;48.512;-2.780;2024-01-30T11:24:57;2.33;;;0.80;;
47455;SDS011;33202;48.512;-2.780;2024-01-30T11:27:24;2.00;;;0.47;;
47455;SDS011;33202;48.512;-2.780;2024-01-30T11:29:52;2.60;;;0.70;;
47455;SDS011;33202;48.512;-2.780;2024-01-30T11:32:22;3.92;;;0.77;;
47455;SDS011;33202;48.512;-2.780;2024-01-30T11:34:49;7.32;;;0.70;;
47455;SDS011;33202;48.512;-2.780;2024-01-30T11:37:15;3.67;;;0.98;;
47455;SDS011;33202;48.512;-2.780;2024-01-30T11:39:41;3.47;;;1.00;;
47455;SDS011;33202;48.512;-2.780;2024-01-30T11:42:08;5.13;;;1.90;;
47455;SDS011;33202;48.512;-2.780;2024-01-30T11:44:34;3.83;;;1.38;;
47455;SDS011;33202;48.512;-2.780;2024-01-30T11:47:00;2.95;;;1.45;;
47455;SDS011;33202;48.512;-2.780;2024-01-30T11:49:28;4.63;;;1.13;;
47455;SDS011;33202;48.512;-2.780;2024-01-30T11:51:54;4.05;;;0.82;;
47455;SDS011;33202;48.512;-2.780;2024-01-30T11:54:20;3.17;;;1.13;;
47455;SDS011;33202;48.512;-2.780;2024-01-30T11:56:46;2.83;;;0.95;;
47455;SDS011;33202;48.512;-2.780;2024-01-30T11:59:13;4.95;;;1.48;;
47455;SDS011;33202;48.512;-2.780;2024-01-30T12:01:39;3.30;;;1.30;;
47455;SDS011;33202;48.512;-2.780;2024-01-30T12:04:05;4.63;;;1.88;;
47455;SDS011;33202;48.512;-2.780;2024-01-30T12:06:34;12.23;;;4.35;;
47455;SDS011;33202;48.512;-2.780;2024-01-30T12:09:01;6.30;;;2.35;;
47455;SDS011;33202;48.512;-2.780;2024-01-30T12:11:35;3.30;;;0.90;;
47455;SDS011;33202;48.512;-2.780;2024-01-30T12:14:08;2.38;;;0.70;;
47455;SDS011;33202;48.512;-2.780;2024-01-30T12:16:35;3.17;;;1.00;;
47455;SDS011;33202;48.512;-2.780;2024-01-30T12:19:01;3.95;;;1.50;;
47455;SDS011;33202;48.512;-2.780;2024-01-30T12:21:27;6.25;;;2.33;;
47455;SDS011;33202;48.512;-2.780;2024-01-30T12:23:53;8.85;;;3.05;;
47455;SDS011;33202;48.512;-2.780;2024-01-30T12:26:19;4.70;;;1.60;;
47455;SDS011;33202;48.512;-2.780;2024-01-30T12:28:49;7.20;;;2.50;;
47455;SDS011;33202;48.512;-2.780;2024-01-30T12:31:15;4.00;;;1.30;;
47455;SDS011;33202;48.512;-2.780;2024-01-30T12:33:41;6.32;;;1.08;;
47455;SDS011;33202;48.512;-2.780;2024-01-30T12:36:07;4.20;;;0.90;;
47455;SDS011;33202;48.512;-2.780;2024-01-30T12:38:33;3.90;;;1.42;;
47455;SDS011;33202;48.512;-2.780;2024-01-30T12:40:59;1.83;;;0.73;;
47455;SDS011;33202;48.512;-2.780;2024-01-30T12:43:25;2.80;;;0.50;;
47455;SDS011;33202;48.512;-2.780;2024-01-30T12:45:54;4.18;;;0.90;;
47455;SDS011;33202;48.512;-2.780;2024-01-30T12:48:20;3.97;;;1.00;;
47455;SDS011;33202;48.512;-2.780;2024-01-30T12:50:46;3.30;;;1.20;;
47455;SDS011;33202;48.512;-2.780;2024-01-30T12:53:12;8.20;;;1.70;;
47455;SDS011;33202;48.512;-2.780;2024-01-30T12:55:38;4.55;;;2.30;;
47455;SDS011;33202;48.512;-2.780;2024-01-30T12:58:04;5.70;;;0.93;;
47455;SDS011;33202;48.512;-2.780;2024-01-30T13:00:30;5.75;;;1.17;;
47455;SDS011;33202;48.512;-2.780;2024-01-30T13:02:58;8.27;;;2.83;;
47455;SDS011;33202;48.512;-2.780;2024-01-30T13:05:24;11.68;;;2.72;;
47455;SDS011;33202;48.512;-2.780;2024-01-30T13:07:50;9.18;;;3.22;;
47455;SDS011;33202;48.512;-2.780;2024-01-30T13:10:18;10.48;;;2.35;;
47455;SDS011;33202;48.512;-2.780;2024-01-30T13:12:44;5.22;;;1.98;;
47455;SDS011;33202;48.512;-2.780;2024-01-30T13:15:10;6.15;;;2.47;;
47455;SDS011;33202;48.512;-2.780;2024-01-30T13:17:36;9.00;;;2.60;;
47455;SDS011;33202;48.512;-2.780;2024-01-30T13:20:02;7.78;;;3.13;;
47455;SDS011;33202;48.512;-2.780;2024-01-30T13:22:29;7.97;;;2.90;;
47455;SDS011;33202;48.512;-2.780;2024-01-30T13:24:55;8.98;;;3.17;;
47455;SDS011;33202;48.512;-2.780;2024-01-30T13:27:21;6.13;;;3.13;;
47455;SDS011;33202;48.512;-2.780;2024-01-30T13:29:47;5.00;;;2.20;;
47455;SDS011;33202;48.512;-2.780;2024-01-30T13:32:13;5.50;;;2.38;;
47455;SDS011;33202;48.512;-2.780;2024-01-30T13:34:39;3.83;;;1.75;;
47455;SDS011;33202;48.512;-2.780;2024-01-30T13:37:06;4.10;;;1.92;;
47455;SDS011;33202;48.512;-2.780;2024-01-30T13:39:32;3.42;;;1.38;;
47455;SDS011;33202;48.512;-2.780;2024-01-30T13:41:58;3.45;;;0.70;;
47455;SDS011;33202;48.512;-2.780;2024-01-30T13:44:24;3.78;;;1.40;;
47455;SDS011;33202;48.512;-2.780;2024-01-30T13:46:50;4.07;;;1.10;;
47455;SDS011;33202;48.512;-2.780;2024-01-30T13:49:16;5.07;;;1.42;;
47455;SDS011;33202;48.512;-2.780;2024-01-30T13:51:42;4.40;;;0.65;;
47455;SDS011;33202;48.512;-2.780;2024-01-30T13:54:08;3.33;;;0.60;;
47455;SDS011;33202;48.512;-2.780;2024-01-30T13:56:34;1.48;;;0.55;;
47455;SDS011;33202;48.512;-2.780;2024-01-30T13:59:00;2.53;;;0.60;;
47455;SDS011;33202;48.512;-2.780;2024-01-30T14:01:29;5.60;;;1.08;;
47455;SDS011;33202;48.512;-2.780;2024-01-30T14:03:55;1.92;;;0.90;;
47455;SDS011;33202;48.512;-2.780;2024-01-30T14:06:21;3.58;;;0.85;;
47455;SDS011;33202;48.512;-2.780;2024-01-30T14:08:47;4.25;;;0.90;;
47455;SDS011;33202;48.512;-2.780;2024-01-30T14:11:13;1.75;;;0.75;;
47455;SDS011;33202;48.512;-2.780;2024-01-30T14:13:39;2.67;;;0.70;;
47455;SDS011;33202;48.512;-2.780;2024-01-30T14:16:05;2.13;;;0.65;;
47455;SDS011;33202;48.512;-2.780;2024-01-30T14:18:32;2.33;;;0.73;;
47455;SDS011;33202;48.512;-2.780;2024-01-30T14:20:58;2.30;;;1.10;;
47455;SDS011;33202;48.512;-2.780;2024-01-30T14:23:24;4.07;;;1.20;;
47455;SDS011;33202;48.512;-2.780;2024-01-30T14:25:50;7.43;;;1.38;;
47455;SDS011;33202;48.512;-2.780;2024-01-30T14:28:16;9.82;;;1.67;;
47455;SDS011;33202;48.512;-2.780;2024-01-30T14:30:42;5.28;;;1.35;;
47455;SDS011;33202;48.512;-2.780;2024-01-30T14:33:08;6.93;;;1.80;;
47455;SDS011;33202;48.512;-2.780;2024-01-30T14:35:34;9.23;;;1.63;;
47455;SDS011;33202;48.512;-2.780;2024-01-30T14:38:01;8.70;;;1.50;;